Time;durP1;ratioP1;P1;durP2;ratioP2;P2;SDS_P1;SDS_P2;PMS_P1;PMS_P2;Temp;Humidity;BMP_temperature;BMP_pressure;BME280_temperature;BME280_humidity;BME280_pressure;Samples;Min_cycle;Max_cycle;Signal;HPM_P1;HPM_P2
2024/04/13 00:00:16;;;;;;;12.27;5.70;;;13.00;70.40;;;;;;5378418;26;20300;-75
2024/04/13 00:02:42;;;;;;;11.00;5.53;;;13.00;70.20;;;;;;5345880;26;20477;-75
2024/04/13 00:05:09;;;;;;;10.03;5.20;;;13.00;70.20;;;;;;5376932;26;20472;-74
2024/04/13 00:07:35;;;;;;;6.80;5.20;;;13.10;70.10;;;;;;5375421;26;20540;-74
2024/04/13 00:10:03;;;;;;;8.10;5.10;;;13.00;70.10;;;;;;5373527;26;20509;-72
2024/04/13 00:12:28;;;;;;;9.37;6.10;;;13.00;70.20;;;;;;5374959;26;20258;-75
2024/04/13 00:14:54;;;;;;;14.30;4.77;;;13.00;70.20;;;;;;5377727;26;21103;-72
2024/04/13 00:17:20;;;;;;;9.03;4.87;;;12.80;70.40;;;;;;5387644;26;20238;-72
2024/04/13 00:19:45;;;;;;;11.70;5.53;;;12.80;70.80;;;;;;5369020;26;20244;-73
2024/04/13 00:22:11;;;;;;;9.17;4.57;;;12.80;70.80;;;;;;5372571;26;20285;-73
2024/04/13 00:24:37;;;;;;;7.50;4.90;;;12.80;70.80;;;;;;5374239;26;20252;-75
2024/04/13 00:27:03;;;;;;;7.40;4.37;;;12.80;71.00;;;;;;5381613;26;20238;-74
2024/04/13 00:29:31;;;;;;;15.07;5.50;;;12.80;71.00;;;;;;5388150;26;20541;-74
2024/04/13 00:31:58;;;;;;;10.20;5.70;;;12.60;70.80;;;;;;5375414;26;20727;-75
2024/04/13 00:34:24;;;;;;;11.83;5.47;;;12.50;71.30;;;;;;5382499;26;20464;-72
2024/04/13 00:36:49;;;;;;;8.60;5.50;;;12.60;71.30;;;;;;5380402;26;20599;-73
2024/04/13 00:39:15;;;;;;;13.10;5.90;;;12.60;71.40;;;;;;5377997;26;20226;-75
2024/04/13 00:41:41;;;;;;;9.57;5.60;;;12.60;71.30;;;;;;5374659;26;20242;-74
2024/04/13 00:44:07;;;;;;;7.93;5.30;;;12.60;71.30;;;;;;5370584;26;20473;-75
2024/04/13 00:46:33;;;;;;;9.57;5.60;;;12.60;71.40;;;;;;5380389;26;20460;-75
2024/04/13 00:49:10;;;;;;;17.53;6.27;;;12.50;71.40;;;;;;5378363;26;20238;-75
2024/04/13 00:51:37;;;;;;;9.23;5.50;;;12.50;71.60;;;;;;5366954;26;20898;-74
2024/04/13 00:54:04;;;;;;;12.93;5.43;;;12.50;71.70;;;;;;5371989;26;20588;-74
2024/04/13 00:56:30;;;;;;;14.17;5.87;;;12.40;71.80;;;;;;5378966;26;20804;-75
2024/04/13 00:58:56;;;;;;;10.57;5.77;;;12.30;72.40;;;;;;5373672;26;20519;-74
2024/04/13 01:01:24;;;;;;;10.37;5.60;;;12.20;72.70;;;;;;5369654;26;20586;-74
2024/04/13 01:03:51;;;;;;;10.17;5.90;;;12.10;73.20;;;;;;5375282;26;20526;-74
2024/04/13 01:06:17;;;;;;;7.77;5.40;;;12.00;73.50;;;;;;5376216;26;20469;-74
2024/04/13 01:08:42;;;;;;;11.17;5.80;;;11.90;74.20;;;;;;5378247;26;20875;-73
2024/04/13 01:11:09;;;;;;;8.53;5.70;;;11.90;74.30;;;;;;5342499;26;20351;-73
2024/04/13 01:13:37;;;;;;;8.50;5.53;;;12.00;74.30;;;;;;5377439;26;20294;-74
2024/04/13 01:16:03;;;;;;;8.97;5.60;;;12.00;74.00;;;;;;5378282;26;20513;-72
2024/04/13 01:18:29;;;;;;;8.80;5.40;;;12.00;74.00;;;;;;5377726;26;20473;-74
2024/04/13 01:20:57;;;;;;;13.73;5.97;;;12.00;74.30;;;;;;5376574;26;20595;-75
2024/04/13 01:23:25;;;;;;;8.30;5.33;;;12.00;73.30;;;;;;5372559;26;20599;-74
2024/04/13 01:25:51;;;;;;;6.37;4.70;;;12.10;72.90;;;;;;5347556;26;20519;-72
2024/04/13 01:28:18;;;;;;;8.90;5.70;;;12.20;72.40;;;;;;5377872;26;20527;-75
2024/04/13 01:30:44;;;;;;;11.80;5.73;;;12.10;72.60;;;;;;5372307;26;21786;-75
2024/04/13 01:33:10;;;;;;;15.13;6.07;;;12.10;73.20;;;;;;5371207;26;20476;-74
2024/04/13 01:35:35;;;;;;;9.57;5.20;;;12.00;73.30;;;;;;5367971;26;20461;-75
2024/04/13 01:38:01;;;;;;;7.93;5.30;;;11.90;73.70;;;;;;5377931;26;20239;-73
2024/04/13 01:40:27;;;;;;;7.30;4.80;;;11.90;74.00;;;;;;5377108;26;20258;-74
2024/04/13 01:42:52;;;;;;;10.30;5.10;;;11.90;74.20;;;;;;5372369;26;20827;-73
2024/04/13 01:45:19;;;;;;;13.70;4.90;;;12.00;73.70;;;;;;5378030;26;20234;-74
2024/04/13 01:47:45;;;;;;;8.13;5.70;;;12.00;73.70;;;;;;5371691;26;20239;-73
2024/04/13 01:50:12;;;;;;;10.20;5.77;;;12.00;73.70;;;;;;5363635;26;20579;-74
2024/04/13 01:52:38;;;;;;;20.23;6.40;;;11.90;74.00;;;;;;5365536;26;20250;-73
2024/04/13 01:55:04;;;;;;;10.20;6.43;;;11.90;74.20;;;;;;5377614;26;20893;-74
2024/04/13 01:57:29;;;;;;;11.90;5.80;;;11.90;74.00;;;;;;5378813;26;20359;-73
2024/04/13 01:59:55;;;;;;;9.67;5.83;;;12.00;73.60;;;;;;5378371;26;20583;-73
2024/04/13 02:02:20;;;;;;;13.50;5.67;;;11.90;73.30;;;;;;5363828;26;20772;-74
2024/04/13 02:04:47;;;;;;;9.20;5.17;;;11.60;74.30;;;;;;5378441;26;20243;-72
2024/04/13 02:07:13;;;;;;;9.80;6.20;;;11.50;74.80;;;;;;5381150;26;20277;-75
2024/04/13 02:09:39;;;;;;;15.33;5.60;;;11.40;75.10;;;;;;5379698;26;20832;-75
2024/04/13 02:12:05;;;;;;;8.63;4.97;;;11.40;75.40;;;;;;5373403;26;20294;-75
2024/04/13 02:14:30;;;;;;;10.67;5.77;;;11.30;75.50;;;;;;5359108;26;21109;-72
2024/04/13 02:16:56;;;;;;;10.23;6.20;;;11.30;75.70;;;;;;5393622;26;20480;-73
2024/04/13 02:19:21;;;;;;;8.90;5.23;;;11.30;75.70;;;;;;5389525;26;20234;-75
2024/04/13 02:21:48;;;;;;;9.00;5.20;;;11.30;76.10;;;;;;5367673;26;20248;-73
2024/04/13 02:24:13;;;;;;;14.03;5.33;;;11.40;76.10;;;;;;5377717;26;20235;-73
2024/04/13 02:26:39;;;;;;;9.90;5.63;;;11.40;75.90;;;;;;5378177;26;20477;-74
2024/04/13 02:29:05;;;;;;;11.27;5.57;;;11.40;76.10;;;;;;5376598;26;20359;-74
2024/04/13 02:31:30;;;;;;;7.20;5.40;;;11.40;76.10;;;;;;5368225;26;20291;-74
2024/04/13 02:33:56;;;;;;;8.20;4.87;;;11.50;75.90;;;;;;5377416;26;20238;-73
2024/04/13 02:36:21;;;;;;;10.77;5.30;;;11.60;75.80;;;;;;5377511;26;20234;-75
2024/04/13 02:38:47;;;;;;;11.83;5.57;;;11.60;75.80;;;;;;5372179;26;20235;-73
2024/04/13 02:41:13;;;;;;;8.93;5.13;;;11.60;75.70;;;;;;5371026;26;21036;-74
2024/04/13 02:43:39;;;;;;;6.40;5.00;;;11.50;75.80;;;;;;5376173;26;20231;-75
2024/04/13 02:46:08;;;;;;;8.67;4.87;;;11.60;75.50;;;;;;5377390;26;20277;-72
2024/04/13 02:48:38;;;;;;;12.60;5.90;;;11.70;74.80;;;;;;5368221;26;20470;-73
2024/04/13 02:51:05;;;;;;;9.33;5.80;;;11.70;74.50;;;;;;5371767;26;20533;-73
2024/04/13 02:53:31;;;;;;;8.97;5.60;;;11.60;75.10;;;;;;5367135;26;20470;-74
2024/04/13 02:55:57;;;;;;;11.80;5.70;;;11.60;75.50;;;;;;5375334;26;20529;-75
2024/04/13 02:58:22;;;;;;;10.50;5.60;;;11.50;74.50;;;;;;5376144;26;20472;-73
2024/04/13 03:00:53;;;;;;;9.17;5.40;;;11.30;74.90;;;;;;5376451;26;20277;-72
2024/04/13 03:03:19;;;;;;;14.60;6.30;;;11.10;75.80;;;;;;5373390;26;20734;-73
2024/04/13 03:05:45;;;;;;;9.77;5.23;;;10.90;76.40;;;;;;5374938;26;21041;-72
2024/04/13 03:08:11;;;;;;;9.30;5.17;;;10.90;77.10;;;;;;5343942;26;20495;-72
2024/04/13 03:10:37;;;;;;;9.63;5.30;;;11.00;77.40;;;;;;5375999;26;20882;-75
2024/04/13 03:13:03;;;;;;;9.97;5.13;;;11.00;77.60;;;;;;5367366;26;20464;-74
2024/04/13 03:15:28;;;;;;;8.17;5.47;;;11.10;77.30;;;;;;5381077;26;20504;-72
2024/04/13 03:17:54;;;;;;;9.87;5.70;;;11.10;77.30;;;;;;5381552;26;20634;-74
2024/04/13 03:20:20;;;;;;;16.17;6.90;;;11.20;77.30;;;;;;5383545;26;20288;-74
2024/04/13 03:22:46;;;;;;;12.80;6.60;;;11.20;77.10;;;;;;5371294;26;20347;-71
2024/04/13 03:25:12;;;;;;;11.23;5.90;;;11.30;76.50;;;;;;5375640;26;20719;-74
2024/04/13 03:27:38;;;;;;;12.13;5.63;;;11.40;76.10;;;;;;5379157;26;20686;-72
2024/04/13 03:30:07;;;;;;;15.17;6.50;;;11.50;75.70;;;;;;5372160;26;20449;-74
2024/04/13 03:32:32;;;;;;;10.23;6.07;;;11.50;75.10;;;;;;5360387;26;20521;-74
2024/04/13 03:34:58;;;;;;;9.23;6.30;;;11.50;74.90;;;;;;5377732;26;20851;-74
2024/04/13 03:37:24;;;;;;;11.03;5.90;;;11.40;75.50;;;;;;5382301;26;20234;-73
2024/04/13 03:39:50;;;;;;;10.00;6.13;;;11.50;74.90;;;;;;5384390;26;20238;-73
2024/04/13 03:42:15;;;;;;;9.63;6.20;;;11.50;75.10;;;;;;5376973;26;20273;-72
2024/04/13 03:44:41;;;;;;;9.93;6.23;;;11.50;75.20;;;;;;5354881;26;20850;-75
2024/04/13 03:47:07;;;;;;;10.60;6.30;;;11.50;74.80;;;;;;5386314;26;20246;-72
2024/04/13 03:49:33;;;;;;;9.97;5.63;;;11.50;74.90;;;;;;5384922;26;20231;-73
2024/04/13 03:52:00;;;;;;;8.77;5.83;;;11.50;75.40;;;;;;5375118;26;20658;-74
2024/04/13 03:54:25;;;;;;;8.53;5.50;;;11.40;75.50;;;;;;5384759;26;20230;-75
2024/04/13 03:56:51;;;;;;;14.73;6.00;;;11.30;75.90;;;;;;5390619;26;20457;-74
2024/04/13 03:59:18;;;;;;;11.07;6.33;;;11.40;76.10;;;;;;5387812;26;20242;-75
2024/04/13 04:01:43;;;;;;;8.43;5.80;;;11.40;75.80;;;;;;5378211;26;20250;-75
2024/04/13 04:04:09;;;;;;;11.80;5.20;;;11.40;75.70;;;;;;5380122;26;20873;-75
2024/04/13 04:06:35;;;;;;;9.00;5.50;;;11.40;75.80;;;;;;5376141;26;20231;-73
2024/04/13 04:09:01;;;;;;;14.03;7.23;;;11.40;75.80;;;;;;5380430;26;20335;-74
2024/04/13 04:11:27;;;;;;;11.93;6.20;;;11.30;75.90;;;;;;5373291;26;20489;-74
2024/04/13 04:13:53;;;;;;;10.30;5.90;;;11.40;75.50;;;;;;5382583;26;20240;-73
2024/04/13 04:16:18;;;;;;;11.10;5.57;;;11.30;75.80;;;;;;5371722;26;20529;-74
2024/04/13 04:18:44;;;;;;;11.83;6.60;;;11.20;76.40;;;;;;5378468;26;20285;-73
2024/04/13 04:21:09;;;;;;;11.33;5.30;;;11.20;76.70;;;;;;5375252;26;20605;-76
2024/04/13 04:23:35;;;;;;;7.60;5.40;;;11.20;76.70;;;;;;5378746;26;20286;-74
2024/04/13 04:26:01;;;;;;;9.53;6.73;;;11.20;76.70;;;;;;5371234;26;20575;-71
2024/04/13 04:28:27;;;;;;;12.17;7.13;;;11.20;76.10;;;;;;5378641;26;20277;-74
2024/04/13 04:30:53;;;;;;;16.10;6.10;;;11.10;75.90;;;;;;5375850;26;20469;-74
2024/04/13 04:33:18;;;;;;;12.30;6.63;;;11.00;76.40;;;;;;5356363;26;20238;-76
2024/04/13 04:35:44;;;;;;;10.87;6.40;;;11.00;76.50;;;;;;5379812;26;20300;-74
2024/04/13 04:38:12;;;;;;;15.90;7.00;;;10.90;76.50;;;;;;5386443;26;20230;-73
2024/04/13 04:40:39;;;;;;;12.50;6.90;;;10.90;76.70;;;;;;5386424;26;20270;-74
2024/04/13 04:43:04;;;;;;;14.13;7.17;;;10.80;76.70;;;;;;5375040;26;20533;-74
2024/04/13 04:45:31;;;;;;;13.83;7.27;;;10.80;76.70;;;;;;5379945;26;20473;-74
2024/04/13 04:47:57;;;;;;;11.90;6.90;;;10.80;77.00;;;;;;5385669;26;20239;-74
2024/04/13 04:50:23;;;;;;;12.10;6.00;;;10.80;76.70;;;;;;5383420;26;20873;-73
2024/04/13 04:52:48;;;;;;;12.07;6.47;;;10.80;76.70;;;;;;5374712;26;20238;-75
2024/04/13 04:55:14;;;;;;;10.83;6.87;;;10.90;76.80;;;;;;5380899;26;20274;-72
2024/04/13 04:57:39;;;;;;;8.63;5.20;;;10.90;76.50;;;;;;5383564;26;20347;-74
2024/04/13 05:00:13;;;;;;;10.77;6.63;;;10.90;76.50;;;;;;5379531;26;20234;-73
2024/04/13 05:02:40;;;;;;;10.50;6.53;;;10.90;76.50;;;;;;5375382;26;20628;-75
2024/04/13 05:05:06;;;;;;;11.67;5.60;;;11.00;76.50;;;;;;5381608;26;20465;-75
2024/04/13 05:07:31;;;;;;;8.23;5.50;;;11.00;76.20;;;;;;5380785;26;20537;-71
2024/04/13 05:09:57;;;;;;;11.20;5.87;;;11.00;75.90;;;;;;5384961;26;20477;-74
2024/04/13 05:12:23;;;;;;;10.47;6.80;;;11.10;75.70;;;;;;5350030;26;20288;-74
2024/04/13 05:14:48;;;;;;;9.40;5.90;;;11.10;75.20;;;;;;5385815;26;20464;-74
2024/04/13 05:17:14;;;;;;;9.40;6.00;;;11.10;75.20;;;;;;5392083;26;20231;-72
2024/04/13 05:19:39;;;;;;;11.50;5.30;;;11.10;75.50;;;;;;5391779;26;20304;-73
2024/04/13 05:22:05;;;;;;;9.27;6.20;;;11.10;75.40;;;;;;5382970;26;20246;-72
2024/04/13 05:24:32;;;;;;;10.70;6.30;;;11.10;75.20;;;;;;5387783;26;20239;-73
2024/04/13 05:26:57;;;;;;;10.20;6.40;;;11.00;75.40;;;;;;5381977;26;20235;-73
2024/04/13 05:29:23;;;;;;;13.03;6.00;;;11.00;75.80;;;;;;5387627;26;20517;-72
2024/04/13 05:31:48;;;;;;;10.23;5.87;;;11.00;75.80;;;;;;5383456;26;20739;-75
2024/04/13 05:34:15;;;;;;;10.93;6.60;;;11.00;75.90;;;;;;5380240;26;20239;-73
2024/04/13 05:36:43;;;;;;;9.53;6.10;;;11.00;75.80;;;;;;5378455;26;20231;-74
2024/04/13 05:39:09;;;;;;;11.10;6.90;;;11.00;76.20;;;;;;5376584;26;20525;-75
2024/04/13 05:41:34;;;;;;;19.07;7.00;;;11.10;76.20;;;;;;5371418;26;20492;-73
2024/04/13 05:44:00;;;;;;;11.13;7.27;;;11.10;76.20;;;;;;5378944;26;20292;-74
2024/04/13 05:46:25;;;;;;;18.27;7.07;;;11.10;76.40;;;;;;5378597;26;20332;-76
2024/04/13 05:48:51;;;;;;;12.27;6.43;;;11.10;76.40;;;;;;5377623;26;20243;-71
2024/04/13 05:51:16;;;;;;;10.00;5.97;;;11.10;75.80;;;;;;5372518;26;20300;-74
2024/04/13 05:53:42;;;;;;;12.47;6.30;;;11.10;75.90;;;;;;5378372;26;20336;-75
2024/04/13 05:56:08;;;;;;;7.63;6.07;;;11.10;75.90;;;;;;5378103;26;20297;-74
2024/04/13 05:58:35;;;;;;;10.40;6.23;;;11.20;76.20;;;;;;5377524;26;20457;-74
2024/04/13 06:01:01;;;;;;;14.93;6.60;;;11.20;76.20;;;;;;5374125;26;20461;-72
2024/04/13 06:03:28;;;;;;;10.27;6.60;;;11.30;75.40;;;;;;5363686;26;20474;-73
2024/04/13 06:05:55;;;;;;;13.77;7.40;;;11.40;74.30;;;;;;5377968;26;20343;-74
2024/04/13 06:08:20;;;;;;;14.13;6.80;;;11.40;74.50;;;;;;5377450;26;20790;-74
2024/04/13 06:10:46;;;;;;;13.00;7.00;;;11.50;74.30;;;;;;5377383;26;20366;-74
2024/04/13 06:13:16;;;;;;;10.03;6.23;;;11.50;74.20;;;;;;5366667;26;20384;-72
2024/04/13 06:15:41;;;;;;;7.70;5.90;;;11.50;74.20;;;;;;5348059;26;20242;-74
2024/04/13 06:18:07;;;;;;;13.70;6.50;;;11.60;74.20;;;;;;5380153;26;21227;-75
2024/04/13 06:20:32;;;;;;;11.10;6.40;;;11.60;74.20;;;;;;5343816;26;20399;-73
2024/04/13 06:22:58;;;;;;;15.43;7.23;;;11.70;74.30;;;;;;5372783;26;20242;-74
2024/04/13 06:25:24;;;;;;;12.27;6.70;;;11.90;73.30;;;;;;5377359;26;20276;-74
2024/04/13 06:27:50;;;;;;;11.73;6.47;;;12.00;72.60;;;;;;5377362;26;20540;-74
2024/04/13 06:30:15;;;;;;;9.90;5.83;;;12.10;72.60;;;;;;5377654;26;20227;-74
2024/04/13 06:32:41;;;;;;;14.47;6.87;;;12.20;72.10;;;;;;5370723;26;20257;-75
2024/04/13 06:35:09;;;;;;;10.30;5.50;;;12.20;72.30;;;;;;5377431;26;20238;-75
2024/04/13 06:37:35;;;;;;;10.80;6.90;;;12.40;71.70;;;;;;5376086;26;20302;-75
2024/04/13 06:40:04;;;;;;;10.07;6.80;;;12.60;71.30;;;;;;5382459;26;20476;-73
2024/04/13 06:42:29;;;;;;;11.00;6.63;;;12.70;70.80;;;;;;5377631;26;20320;-73
2024/04/13 06:44:55;;;;;;;12.93;6.10;;;12.60;71.00;;;;;;5384833;26;21018;-72
2024/04/13 06:47:20;;;;;;;12.13;6.50;;;12.60;71.00;;;;;;5381304;26;20907;-73
2024/04/13 06:49:46;;;;;;;14.30;7.27;;;12.70;71.40;;;;;;5386793;26;20285;-76
2024/04/13 06:52:12;;;;;;;10.80;7.10;;;12.80;71.30;;;;;;5374051;26;20248;-74
2024/04/13 06:54:38;;;;;;;11.17;7.20;;;12.90;70.80;;;;;;5371804;26;20829;-74
2024/04/13 06:57:04;;;;;;;15.50;8.80;;;13.00;70.50;;;;;;5380349;26;20461;-74
2024/04/13 06:59:29;;;;;;;12.63;6.90;;;13.10;70.40;;;;;;5380943;26;20819;-74
2024/04/13 07:01:55;;;;;;;10.57;7.57;;;13.30;69.80;;;;;;5377173;26;20770;-73
2024/04/13 07:04:20;;;;;;;11.83;6.90;;;13.40;69.40;;;;;;5380822;26;20266;-75
2024/04/13 07:06:46;;;;;;;11.60;7.23;;;13.50;69.20;;;;;;5372469;26;20302;-74
2024/04/13 07:09:12;;;;;;;16.47;8.27;;;13.70;68.60;;;;;;5381109;26;20246;-74
2024/04/13 07:11:37;;;;;;;13.67;8.30;;;13.80;68.50;;;;;;5375857;26;20288;-75
2024/04/13 07:14:03;;;;;;;15.93;7.80;;;13.90;68.30;;;;;;5374732;26;20294;-76
2024/04/13 07:16:30;;;;;;;13.63;7.40;;;14.00;68.00;;;;;;5380741;26;20238;-76
2024/04/13 07:18:55;;;;;;;13.77;9.70;;;14.10;67.70;;;;;;5378316;26;20453;-75
2024/04/13 07:21:21;;;;;;;17.10;9.80;;;14.20;67.70;;;;;;5372125;26;20532;-75
2024/04/13 07:23:48;;;;;;;20.70;9.70;;;14.10;67.90;;;;;;5378417;26;20250;-74
2024/04/13 07:26:13;;;;;;;15.00;9.70;;;14.10;68.30;;;;;;5382022;26;20234;-73
2024/04/13 07:28:39;;;;;;;18.50;10.00;;;14.10;68.80;;;;;;5384611;26;20484;-75
2024/04/13 07:31:04;;;;;;;22.87;11.37;;;14.10;68.90;;;;;;5382641;26;20292;-73
2024/04/13 07:33:31;;;;;;;23.53;13.03;;;14.00;69.10;;;;;;5383352;26;20230;-73
2024/04/13 07:35:56;;;;;;;20.50;10.00;;;14.00;69.10;;;;;;5389513;26;20234;-74
2024/04/13 07:38:24;;;;;;;18.53;10.27;;;14.10;69.20;;;;;;5377735;26;21254;-75
2024/04/13 07:40:49;;;;;;;17.60;10.50;;;14.10;68.90;;;;;;5380359;26;20741;-73
2024/04/13 07:43:15;;;;;;;14.73;9.90;;;14.10;68.80;;;;;;5368250;26;20517;-74
2024/04/13 07:45:45;;;;;;;15.10;9.90;;;14.20;68.50;;;;;;5369537;26;20821;-75
2024/04/13 07:48:10;;;;;;;20.20;10.97;;;14.30;68.30;;;;;;5368973;26;20251;-74
2024/04/13 07:50:36;;;;;;;16.63;9.07;;;14.30;68.00;;;;;;5380443;26;20521;-76
2024/04/13 07:53:02;;;;;;;17.20;10.00;;;14.40;68.00;;;;;;5372854;26;20247;-75
2024/04/13 07:55:27;;;;;;;12.20;9.97;;;14.50;67.90;;;;;;5381385;26;20347;-75
2024/04/13 07:57:53;;;;;;;17.80;9.37;;;14.60;67.70;;;;;;5380562;26;20251;-73
2024/04/13 08:00:19;;;;;;;12.50;9.77;;;14.80;67.50;;;;;;5381278;26;20837;-72
2024/04/13 08:02:44;;;;;;;14.67;9.10;;;14.90;67.20;;;;;;5377188;26;20239;-74
2024/04/13 08:05:10;;;;;;;16.20;9.50;;;15.10;66.70;;;;;;5371901;26;20240;-74
2024/04/13 08:07:36;;;;;;;13.57;9.23;;;15.20;66.70;;;;;;5384958;26;20239;-74
2024/04/13 08:10:01;;;;;;;15.90;9.10;;;15.40;66.10;;;;;;5387713;26;20269;-73
2024/04/13 08:12:29;;;;;;;14.20;9.50;;;15.60;65.80;;;;;;5383336;26;20242;-73
2024/04/13 08:14:55;;;;;;;16.83;9.80;;;15.60;65.40;;;;;;5378778;26;20240;-72
2024/04/13 08:17:26;;;;;;;15.57;10.77;;;15.80;65.30;;;;;;5382390;26;20593;-75
2024/04/13 08:19:53;;;;;;;11.40;8.80;;;15.80;65.00;;;;;;5383594;26;20346;-73
2024/04/13 08:22:18;;;;;;;11.83;8.87;;;16.00;65.00;;;;;;5367630;26;20574;-75
2024/04/13 08:24:45;;;;;;;18.00;10.43;;;16.10;64.70;;;;;;5379349;26;20461;-74
2024/04/13 08:27:11;;;;;;;15.73;9.07;;;16.20;64.50;;;;;;5383182;26;20271;-74
2024/04/13 08:29:37;;;;;;;13.67;9.40;;;16.30;64.20;;;;;;5384410;26;20463;-74
2024/04/13 08:32:03;;;;;;;15.60;9.10;;;16.40;64.10;;;;;;5374356;26;20245;-74
2024/04/13 08:34:28;;;;;;;17.27;11.73;;;16.50;63.80;;;;;;5383947;26;21084;-75
2024/04/13 08:36:54;;;;;;;16.43;9.07;;;16.60;64.10;;;;;;5381048;26;20242;-74
2024/04/13 08:39:20;;;;;;;14.50;8.90;;;16.70;63.90;;;;;;5387491;26;20253;-75
2024/04/13 08:42:05;;;;;;;16.73;8.90;;;17.00;63.50;;;;;;5377826;26;20246;-75
2024/04/13 08:44:31;;;;;;;12.33;9.03;;;17.10;63.20;;;;;;5383270;26;20535;-75
2024/04/13 08:47:01;;;;;;;11.83;7.50;;;17.30;62.90;;;;;;5379993;26;20465;-73
2024/04/13 08:49:39;;;;;;;17.03;8.37;;;17.60;62.80;;;;;;5379851;26;20575;-74
2024/04/13 08:52:07;;;;;;;14.43;7.80;;;17.80;62.20;;;;;;5372118;26;20992;-74
2024/04/13 08:54:32;;;;;;;15.37;7.87;;;18.00;61.90;;;;;;5376786;26;20620;-73
2024/04/13 08:57:05;;;;;;;13.37;6.23;;;18.20;61.50;;;;;;5380775;26;20866;-75
2024/04/13 08:59:31;;;;;;;10.93;6.40;;;18.40;61.20;;;;;;5390349;26;20257;-71
2024/04/13 09:01:58;;;;;;;15.27;7.30;;;18.40;60.90;;;;;;5390990;26;20488;-75
2024/04/13 09:04:23;;;;;;;10.63;6.83;;;18.60;61.20;;;;;;5382899;26;20475;-74
2024/04/13 09:07:00;;;;;;;16.20;7.80;;;18.70;61.00;;;;;;5395423;26;20942;-74
2024/04/13 09:09:26;;;;;;;12.87;7.33;;;18.80;61.20;;;;;;5383867;26;20584;-74
2024/04/13 09:11:52;;;;;;;11.83;7.70;;;18.90;61.00;;;;;;5374610;26;20551;-72
2024/04/13 09:14:18;;;;;;;15.93;7.77;;;18.90;60.90;;;;;;5373563;26;20637;-73
2024/04/13 09:16:45;;;;;;;10.63;7.13;;;19.00;60.60;;;;;;5377807;26;20529;-73
2024/04/13 09:19:11;;;;;;;15.57;6.50;;;19.00;60.70;;;;;;5380995;26;20734;-76
2024/04/13 09:21:41;;;;;;;13.73;5.80;;;19.20;60.40;;;;;;5375988;26;20544;-76
2024/04/13 09:24:07;;;;;;;19.77;6.90;;;19.30;59.90;;;;;;5379053;26;20297;-74
2024/04/13 09:26:42;;;;;;;11.10;5.80;;;19.50;59.70;;;;;;5379474;26;21387;-74
2024/04/13 09:29:08;;;;;;;30.33;8.53;;;19.60;59.90;;;;;;5378115;26;20276;-73
2024/04/13 09:31:39;;;;;;;25.87;7.80;;;19.70;59.90;;;;;;5375506;26;20476;-74
2024/04/13 09:34:05;;;;;;;24.57;7.27;;;19.80;59.70;;;;;;5383161;26;20339;-73
2024/04/13 09:36:31;;;;;;;10.47;5.17;;;19.90;59.50;;;;;;5384479;26;20474;-73
2024/04/13 09:38:57;;;;;;;38.57;7.70;;;20.10;59.20;;;;;;5382045;26;20548;-76
2024/04/13 09:41:26;;;;;;;12.87;5.40;;;20.20;58.90;;;;;;5381799;26;21537;-76
2024/04/13 09:43:52;;;;;;;29.03;7.03;;;20.20;58.90;;;;;;5374483;26;20465;-76
2024/04/13 09:46:20;;;;;;;8.10;4.53;;;20.30;58.80;;;;;;5383120;26;20527;-73
2024/04/13 09:48:46;;;;;;;8.80;4.87;;;20.40;58.50;;;;;;5381570;26;20235;-76
2024/04/13 09:51:12;;;;;;;10.97;5.20;;;20.50;58.40;;;;;;5375863;26;20490;-76
2024/04/13 09:53:38;;;;;;;7.30;4.27;;;20.50;58.20;;;;;;5368922;26;20466;-77
2024/04/13 09:56:04;;;;;;;23.73;5.90;;;20.70;57.80;;;;;;5377340;26;20545;-75
2024/04/13 09:58:30;;;;;;;11.30;4.60;;;20.80;57.60;;;;;;5380332;26;20518;-74
2024/04/13 10:01:01;;;;;;;8.20;4.40;;;20.90;57.30;;;;;;5377990;26;20567;-77
2024/04/13 10:03:27;;;;;;;7.50;3.60;;;20.90;57.40;;;;;;5374854;26;20479;-76
2024/04/13 10:05:56;;;;;;;7.57;3.83;;;21.10;56.90;;;;;;5351989;26;20814;-75
2024/04/13 10:08:25;;;;;;;5.57;3.93;;;21.20;56.90;;;;;;5364701;26;20470;-76
2024/04/13 10:10:52;;;;;;;8.03;4.17;;;21.20;56.50;;;;;;5378581;26;21537;-72
2024/04/13 10:13:31;;;;;;;8.70;3.73;;;21.30;56.10;;;;;;5375530;26;20601;-76
2024/04/13 10:15:58;;;;;;;10.60;3.60;;;21.40;56.00;;;;;;5378815;26;20528;-74
2024/04/13 10:18:24;;;;;;;6.60;3.37;;;21.50;55.60;;;;;;5378100;26;20583;-76
2024/04/13 10:20:50;;;;;;;5.87;3.37;;;21.60;55.60;;;;;;5377466;26;20543;-74
2024/04/13 10:23:16;;;;;;;6.60;4.00;;;21.80;55.40;;;;;;5370082;26;20238;-76
2024/04/13 10:25:42;;;;;;;5.90;3.97;;;22.00;55.00;;;;;;5369043;26;20233;-74
2024/04/13 10:28:10;;;;;;;8.63;3.43;;;22.10;54.60;;;;;;5378275;26;20463;-75
2024/04/13 10:30:49;;;;;;;3.70;2.87;;;22.00;54.10;;;;;;5377671;26;20241;-76
2024/04/13 10:33:28;;;;;;;4.80;3.00;;;21.80;53.60;;;;;;5375053;26;20553;-74
2024/04/13 10:35:57;;;;;;;7.03;4.90;;;21.80;54.10;;;;;;5377198;26;20999;-76
2024/04/13 10:38:25;;;;;;;7.47;3.30;;;21.90;54.10;;;;;;5378665;26;20531;-75
2024/04/13 10:40:50;;;;;;;4.57;3.10;;;22.20;53.60;;;;;;5379007;26;20476;-74
2024/04/13 10:43:20;;;;;;;5.10;3.10;;;22.50;52.90;;;;;;5381751;26;20519;-76
2024/04/13 10:45:52;;;;;;;5.27;3.10;;;22.50;52.10;;;;;;5378879;26;20297;-76
2024/04/13 10:48:19;;;;;;;5.50;2.90;;;22.70;52.40;;;;;;5377578;26;20505;-76
2024/04/13 10:50:48;;;;;;;9.73;3.17;;;23.00;52.00;;;;;;5377661;26;21072;-76
2024/04/13 10:53:14;;;;;;;6.13;2.70;;;23.50;51.00;;;;;;5365019;26;20514;-75
2024/04/13 10:55:40;;;;;;;4.80;3.47;;;23.90;49.10;;;;;;5378698;26;20463;-75
2024/04/13 10:58:07;;;;;;;5.73;2.80;;;24.10;49.10;;;;;;5376654;26;20981;-76
2024/04/13 11:00:34;;;;;;;4.43;2.80;;;24.50;48.60;;;;;;5384257;26;20466;-75
2024/04/13 11:03:00;;;;;;;6.23;3.20;;;24.80;47.90;;;;;;5377754;26;20868;-75
2024/04/13 11:05:27;;;;;;;5.27;3.60;;;24.80;47.50;;;;;;5378578;26;20463;-75
2024/04/13 11:07:53;;;;;;;6.60;3.33;;;24.90;47.40;;;;;;5378615;26;20467;-74
2024/04/13 11:10:23;;;;;;;7.00;3.50;;;24.90;47.40;;;;;;5374152;26;20516;-73
2024/04/13 11:12:49;;;;;;;6.23;3.33;;;25.20;47.40;;;;;;5367813;26;20357;-75
2024/04/13 11:15:15;;;;;;;7.20;3.67;;;25.30;46.90;;;;;;5375042;26;20470;-75
2024/04/13 11:17:43;;;;;;;3.53;2.80;;;25.60;45.50;;;;;;5381038;26;20586;-73
2024/04/13 11:20:10;;;;;;;6.10;3.10;;;25.60;45.70;;;;;;5384592;26;20471;-75
2024/04/13 11:22:37;;;;;;;4.53;3.37;;;25.70;44.60;;;;;;5376245;26;20481;-74
2024/04/13 11:25:03;;;;;;;20.43;4.77;;;25.70;44.70;;;;;;5382525;26;20532;-73
2024/04/13 11:27:29;;;;;;;7.43;3.20;;;25.50;45.50;;;;;;5384475;26;20809;-76
2024/04/13 11:29:55;;;;;;;9.20;3.70;;;25.50;45.50;;;;;;5377210;26;20288;-76
2024/04/13 11:32:21;;;;;;;10.03;2.90;;;25.80;45.10;;;;;;5374305;26;20476;-76
2024/04/13 11:34:48;;;;;;;8.83;3.50;;;25.90;45.00;;;;;;5384982;26;20281;-75
2024/04/13 11:37:14;;;;;;;6.73;3.50;;;25.90;44.10;;;;;;5386282;26;20373;-73
2024/04/13 11:39:41;;;;;;;6.03;3.40;;;25.80;44.20;;;;;;5386596;26;21026;-74
2024/04/13 11:42:07;;;;;;;8.33;3.30;;;25.50;45.90;;;;;;5371452;26;20475;-74
2024/04/13 11:44:37;;;;;;;5.03;2.90;;;25.60;45.80;;;;;;5388571;26;20565;-76
2024/04/13 11:47:03;;;;;;;6.83;3.07;;;25.90;45.40;;;;;;5388032;26;20938;-74
2024/04/13 11:49:28;;;;;;;7.93;3.20;;;25.90;45.50;;;;;;5383667;26;21058;-76
2024/04/13 11:51:54;;;;;;;7.67;3.57;;;26.10;44.50;;;;;;5376580;26;20542;-75
2024/04/13 11:54:20;;;;;;;3.93;3.20;;;26.00;44.60;;;;;;5382516;26;20248;-75
2024/04/13 11:56:46;;;;;;;6.13;3.77;;;25.90;44.70;;;;;;5382291;26;20460;-75
2024/04/13 11:59:15;;;;;;;7.40;3.37;;;25.50;45.40;;;;;;5350072;26;20726;-75
2024/04/13 12:01:40;;;;;;;6.93;3.17;;;25.30;46.30;;;;;;5378101;26;20245;-74
2024/04/13 12:04:06;;;;;;;6.90;3.30;;;25.30;45.80;;;;;;5381530;26;20519;-74
2024/04/13 12:06:32;;;;;;;6.57;3.40;;;25.40;45.90;;;;;;5379713;26;20720;-76
2024/04/13 12:08:59;;;;;;;4.60;3.70;;;25.60;45.70;;;;;;5383331;26;20240;-74
2024/04/13 12:11:29;;;;;;;6.53;3.40;;;25.60;45.80;;;;;;5370170;26;20578;-76
2024/04/13 12:13:54;;;;;;;7.63;3.53;;;25.80;45.70;;;;;;5377549;26;21058;-76
2024/04/13 12:16:20;;;;;;;5.10;3.30;;;25.80;45.00;;;;;;5377407;26;20971;-75
2024/04/13 12:18:46;;;;;;;5.03;3.67;;;25.70;45.10;;;;;;5380940;26;20241;-74
2024/04/13 12:21:12;;;;;;;10.60;4.43;;;25.70;44.90;;;;;;5379161;26;20292;-74
2024/04/13 12:23:38;;;;;;;6.33;3.23;;;25.80;44.90;;;;;;5374642;26;20645;-77
2024/04/13 12:26:04;;;;;;;5.60;4.07;;;25.60;45.30;;;;;;5376568;26;20546;-74
2024/04/13 12:28:29;;;;;;;9.60;3.77;;;25.90;44.60;;;;;;5380856;26;20363;-74
2024/04/13 12:30:56;;;;;;;6.77;4.07;;;25.80;44.90;;;;;;5379969;26;20239;-75
2024/04/13 12:33:22;;;;;;;8.07;3.90;;;25.80;44.50;;;;;;5356264;26;20228;-75
2024/04/13 12:35:48;;;;;;;11.70;3.70;;;25.70;44.60;;;;;;5375073;26;20464;-75